sensor_id;sensor_type;location;lat;lon;timestamp;P1;durP1;ratioP1;P2;durP2;ratioP2
22521;SDS011;11427;51.062;17.044;2023-03-01T00:09:44;81.65;;;42.33;;
22521;SDS011;11427;51.062;17.044;2023-03-01T00:24:47;77.85;;;40.85;;
22521;SDS011;11427;51.062;17.044;2023-03-01T00:39:49;78.57;;;42.88;;
22521;SDS011;11427;51.062;17.044;2023-03-01T00:54:52;79.10;;;40.22;;
22521;SDS011;11427;51.062;17.044;2023-03-01T01:09:54;79.07;;;41.08;;
22521;SDS011;11427;51.062;17.044;2023-03-01T01:24:56;78.22;;;41.80;;
22521;SDS011;11427;51.062;17.044;2023-03-01T01:40:00;80.10;;;42.50;;
22521;SDS011;11427;51.062;17.044;2023-03-01T01:55:14;86.60;;;44.63;;
22521;SDS011;11427;51.062;17.044;2023-03-01T02:10:22;86.40;;;44.45;;
22521;SDS011;11427;51.062;17.044;2023-03-01T02:40:36;80.55;;;45.00;;
22521;SDS011;11427;51.062;17.044;2023-03-01T02:55:40;95.97;;;50.60;;
22521;SDS011;11427;51.062;17.044;2023-03-01T03:10:42;79.97;;;43.70;;
22521;SDS011;11427;51.062;17.044;2023-03-01T03:25:44;82.70;;;43.63;;
22521;SDS011;11427;51.062;17.044;2023-03-01T03:40:49;81.95;;;42.08;;
22521;SDS011;11427;51.062;17.044;2023-03-01T03:55:53;91.60;;;49.70;;
22521;SDS011;11427;51.062;17.044;2023-03-01T04:11:05;77.65;;;44.03;;
22521;SDS011;11427;51.062;17.044;2023-03-01T04:26:25;87.55;;;47.50;;
22521;SDS011;11427;51.062;17.044;2023-03-01T04:41:28;108.35;;;56.38;;
22521;SDS011;11427;51.062;17.044;2023-03-01T04:56:30;88.30;;;46.58;;
22521;SDS011;11427;51.062;17.044;2023-03-01T05:11:33;86.72;;;48.33;;
22521;SDS011;11427;51.062;17.044;2023-03-01T05:26:37;81.03;;;43.92;;
22521;SDS011;11427;51.062;17.044;2023-03-01T05:41:41;78.35;;;42.88;;
22521;SDS011;11427;51.062;17.044;2023-03-01T05:56:44;93.03;;;50.35;;
22521;SDS011;11427;51.062;17.044;2023-03-01T06:11:46;90.68;;;47.88;;
22521;SDS011;11427;51.062;17.044;2023-03-01T06:26:48;104.30;;;54.15;;
22521;SDS011;11427;51.062;17.044;2023-03-01T06:41:50;77.38;;;41.72;;
22521;SDS011;11427;51.062;17.044;2023-03-01T06:56:54;100.15;;;51.30;;
22521;SDS011;11427;51.062;17.044;2023-03-01T07:11:56;92.82;;;50.70;;
22521;SDS011;11427;51.062;17.044;2023-03-01T07:26:59;115.43;;;58.67;;
22521;SDS011;11427;51.062;17.044;2023-03-01T07:42:01;90.53;;;50.83;;
22521;SDS011;11427;51.062;17.044;2023-03-01T07:57:03;101.55;;;54.08;;
22521;SDS011;11427;51.062;17.044;2023-03-01T08:12:05;83.72;;;45.08;;
22521;SDS011;11427;51.062;17.044;2023-03-01T08:27:07;72.88;;;43.22;;
22521;SDS011;11427;51.062;17.044;2023-03-01T08:42:10;44.80;;;30.00;;
22521;SDS011;11427;51.062;17.044;2023-03-01T08:57:12;64.72;;;32.45;;
22521;SDS011;11427;51.062;17.044;2023-03-01T09:12:14;42.70;;;26.35;;
22521;SDS011;11427;51.062;17.044;2023-03-01T09:27:16;35.33;;;23.67;;
22521;SDS011;11427;51.062;17.044;2023-03-01T09:42:20;47.30;;;29.75;;
22521;SDS011;11427;51.062;17.044;2023-03-01T10:12:51;47.65;;;30.92;;
22521;SDS011;11427;51.062;17.044;2023-03-01T10:27:57;45.00;;;28.45;;
22521;SDS011;11427;51.062;17.044;2023-03-01T10:43:05;43.10;;;25.73;;
22521;SDS011;11427;51.062;17.044;2023-03-01T11:13:18;35.30;;;22.00;;
22521;SDS011;11427;51.062;17.044;2023-03-01T11:28:21;47.00;;;25.13;;
22521;SDS011;11427;51.062;17.044;2023-03-01T11:58:57;36.50;;;21.80;;
22521;SDS011;11427;51.062;17.044;2023-03-01T12:29:34;23.50;;;11.98;;
22521;SDS011;11427;51.062;17.044;2023-03-01T12:45:06;31.00;;;18.95;;
22521;SDS011;11427;51.062;17.044;2023-03-01T13:00:35;25.25;;;16.15;;
22521;SDS011;11427;51.062;17.044;2023-03-01T13:16:38;23.27;;;12.98;;
22521;SDS011;11427;51.062;17.044;2023-03-01T13:46:32;14.90;;;10.85;;
22521;SDS011;11427;51.062;17.044;2023-03-01T14:01:35;14.40;;;10.93;;
22521;SDS011;11427;51.062;17.044;2023-03-01T14:31:47;15.93;;;11.32;;
22521;SDS011;11427;51.062;17.044;2023-03-01T14:46:54;15.35;;;11.27;;
22521;SDS011;11427;51.062;17.044;2023-03-01T15:01:57;21.45;;;12.77;;
22521;SDS011;11427;51.062;17.044;2023-03-01T15:17:00;22.80;;;12.90;;
22521;SDS011;11427;51.062;17.044;2023-03-01T15:32:03;19.30;;;12.57;;
22521;SDS011;11427;51.062;17.044;2023-03-01T15:47:23;16.88;;;11.93;;
22521;SDS011;11427;51.062;17.044;2023-03-01T16:02:30;25.98;;;14.80;;
22521;SDS011;11427;51.062;17.044;2023-03-01T16:17:31;22.10;;;15.18;;
22521;SDS011;11427;51.062;17.044;2023-03-01T16:32:37;30.27;;;18.45;;
22521;SDS011;11427;51.062;17.044;2023-03-01T16:47:41;28.17;;;17.63;;
22521;SDS011;11427;51.062;17.044;2023-03-01T17:02:43;29.33;;;17.52;;
22521;SDS011;11427;51.062;17.044;2023-03-01T17:17:45;35.13;;;20.50;;
22521;SDS011;11427;51.062;17.044;2023-03-01T17:32:52;32.65;;;19.58;;
22521;SDS011;11427;51.062;17.044;2023-03-01T17:47:56;37.67;;;22.48;;
22521;SDS011;11427;51.062;17.044;2023-03-01T18:02:58;34.30;;;20.75;;
22521;SDS011;11427;51.062;17.044;2023-03-01T18:18:00;39.55;;;22.30;;
22521;SDS011;11427;51.062;17.044;2023-03-01T18:33:02;38.22;;;24.20;;
22521;SDS011;11427;51.062;17.044;2023-03-01T18:48:04;41.88;;;26.15;;
22521;SDS011;11427;51.062;17.044;2023-03-01T19:03:06;46.47;;;27.48;;
22521;SDS011;11427;51.062;17.044;2023-03-01T19:18:09;46.92;;;28.48;;
22521;SDS011;11427;51.062;17.044;2023-03-01T19:33:16;67.50;;;35.35;;
22521;SDS011;11427;51.062;17.044;2023-03-01T20:04:28;67.72;;;37.83;;
22521;SDS011;11427;51.062;17.044;2023-03-01T20:19:34;69.90;;;38.73;;
22521;SDS011;11427;51.062;17.044;2023-03-01T20:34:39;78.35;;;41.90;;
22521;SDS011;11427;51.062;17.044;2023-03-01T20:49:49;105.38;;;55.72;;
22521;SDS011;11427;51.062;17.044;2023-03-01T21:04:52;92.13;;;48.22;;
22521;SDS011;11427;51.062;17.044;2023-03-01T21:19:54;127.05;;;66.00;;
22521;SDS011;11427;51.062;17.044;2023-03-01T21:34:58;147.65;;;76.57;;
22521;SDS011;11427;51.062;17.044;2023-03-01T21:50:01;165.60;;;80.65;;
22521;SDS011;11427;51.062;17.044;2023-03-01T22:05:03;174.93;;;86.07;;
22521;SDS011;11427;51.062;17.044;2023-03-01T22:20:05;147.45;;;67.82;;
22521;SDS011;11427;51.062;17.044;2023-03-01T22:35:08;94.97;;;47.88;;
22521;SDS011;11427;51.062;17.044;2023-03-01T22:50:11;100.78;;;48.75;;
22521;SDS011;11427;51.062;17.044;2023-03-01T23:05:15;105.15;;;52.78;;
22521;SDS011;11427;51.062;17.044;2023-03-01T23:20:17;96.00;;;50.92;;
22521;SDS011;11427;51.062;17.044;2023-03-01T23:35:19;110.43;;;55.72;;
22521;SDS011;11427;51.062;17.044;2023-03-01T23:50:21;134.27;;;67.47;;
